Time;durP1;ratioP1;P1;durP2;ratioP2;P2;SDS_P1;SDS_P2;PMS_P1;PMS_P2;Temp;Humidity;BMP_temperature;BMP_pressure;BME280_temperature;BME280_humidity;BME280_pressure;Samples;Min_cycle;Max_cycle;Signal;HPM_P1;HPM_P2
2022/12/16 00:00:45;;;;;;;55.63;31.52;;;;;;;;;;5033455;28;20021;-67
2022/12/16 00:03:11;;;;;;;60.53;32.00;;;;;;;;;;5032588;28;20532;-67
2022/12/16 00:05:37;;;;;;;58.15;33.78;;;;;;;;;;5033001;28;20025;-68
2022/12/16 00:08:04;;;;;;;56.15;31.95;;;;;;;;;;5032998;28;20036;-67
2022/12/16 00:10:51;;;;;;;57.70;30.58;;;;;;;;;;5031888;28;20029;-68
2022/12/16 00:13:15;;;;;;;60.42;31.95;;;;;;;;;;5032341;28;20060;-68
2022/12/16 00:15:41;;;;;;;54.75;32.78;;;;;;;;;;5033357;28;20111;-68
2022/12/16 00:18:07;;;;;;;51.33;30.73;;;;;;;;;;5033796;28;20022;-68
2022/12/16 00:20:33;;;;;;;57.75;30.73;;;;;;;;;;5033767;28;20429;-66
2022/12/16 00:22:59;;;;;;;55.15;32.83;;;;;;;;;;5033405;28;20112;-66
2022/12/16 00:25:25;;;;;;;55.47;30.98;;;;;;;;;;5033323;28;20032;-66
2022/12/16 00:27:51;;;;;;;65.05;35.15;;;;;;;;;;5033676;28;20032;-67
2022/12/16 00:30:17;;;;;;;52.50;30.83;;;;;;;;;;5033282;28;20026;-68
2022/12/16 00:32:43;;;;;;;64.47;32.03;;;;;;;;;;5033556;28;20022;-68
2022/12/16 00:35:09;;;;;;;54.90;31.60;;;;;;;;;;5032941;28;20031;-65
2022/12/16 00:37:35;;;;;;;56.55;31.27;;;;;;;;;;5031911;28;20029;-66
2022/12/16 00:40:01;;;;;;;54.25;30.23;;;;;;;;;;5031839;28;20448;-67
2022/12/16 00:42:27;;;;;;;58.17;31.83;;;;;;;;;;5033193;28;20022;-67
2022/12/16 00:44:53;;;;;;;60.22;33.00;;;;;;;;;;5032291;28;20025;-66
2022/12/16 00:47:19;;;;;;;53.90;30.70;;;;;;;;;;5033255;28;20212;-68
2022/12/16 00:49:46;;;;;;;59.75;31.38;;;;;;;;;;5032850;28;20036;-67
2022/12/16 00:52:12;;;;;;;66.18;32.80;;;;;;;;;;5032922;28;20083;-67
2022/12/16 00:54:38;;;;;;;49.25;29.65;;;;;;;;;;5030972;28;20473;-67
2022/12/16 00:57:04;;;;;;;58.08;30.77;;;;;;;;;;5032997;28;20029;-66
2022/12/16 00:59:30;;;;;;;57.40;30.63;;;;;;;;;;5033220;28;20403;-67
2022/12/16 01:01:55;;;;;;;59.10;31.00;;;;;;;;;;5031952;28;20026;-68
2022/12/16 01:04:22;;;;;;;57.80;31.40;;;;;;;;;;5031278;28;20024;-68
2022/12/16 01:06:48;;;;;;;58.85;33.25;;;;;;;;;;5032815;28;20397;-67
2022/12/16 01:09:14;;;;;;;58.22;28.77;;;;;;;;;;5031300;28;20056;-70
2022/12/16 01:11:40;;;;;;;58.10;31.33;;;;;;;;;;5032695;28;20026;-70
2022/12/16 01:14:05;;;;;;;53.92;31.00;;;;;;;;;;5032287;28;20381;-65
2022/12/16 01:16:33;;;;;;;58.10;31.00;;;;;;;;;;5032539;28;20030;-67
2022/12/16 01:19:00;;;;;;;54.20;28.95;;;;;;;;;;5032976;28;20029;-67
2022/12/16 01:21:26;;;;;;;57.28;31.25;;;;;;;;;;5032949;28;20024;-68
2022/12/16 01:23:52;;;;;;;56.88;30.50;;;;;;;;;;5032736;28;20063;-69
2022/12/16 01:26:18;;;;;;;53.65;29.27;;;;;;;;;;5032129;28;20037;-67
2022/12/16 01:28:46;;;;;;;54.83;29.85;;;;;;;;;;5032028;28;20029;-68
2022/12/16 01:31:14;;;;;;;58.38;30.80;;;;;;;;;;5032492;28;20454;-68
2022/12/16 01:33:40;;;;;;;50.50;29.08;;;;;;;;;;5031948;28;20029;-66
2022/12/16 01:36:07;;;;;;;48.72;26.63;;;;;;;;;;5032049;28;20023;-67
2022/12/16 01:38:33;;;;;;;49.55;27.70;;;;;;;;;;5032337;28;20108;-67
2022/12/16 01:41:00;;;;;;;44.72;26.30;;;;;;;;;;5032231;28;20455;-68
2022/12/16 01:43:27;;;;;;;49.38;29.25;;;;;;;;;;5031278;28;20489;-67
2022/12/16 01:45:56;;;;;;;46.92;27.27;;;;;;;;;;5031768;28;20029;-67
2022/12/16 01:48:32;;;;;;;53.92;28.33;;;;;;;;;;5031885;28;20029;-67
2022/12/16 01:51:01;;;;;;;45.00;26.05;;;;;;;;;;5031818;28;20026;-67
2022/12/16 01:53:27;;;;;;;40.08;26.92;;;;;;;;;;5031010;28;20044;-69
2022/12/16 01:55:55;;;;;;;50.60;26.67;;;;;;;;;;5030945;28;20029;-70
2022/12/16 01:58:23;;;;;;;48.78;28.10;;;;;;;;;;5031508;28;20025;-67
2022/12/16 02:00:49;;;;;;;51.03;26.52;;;;;;;;;;5030115;28;20080;-67
2022/12/16 02:03:15;;;;;;;49.22;27.70;;;;;;;;;;5029133;28;20132;-67
2022/12/16 02:05:42;;;;;;;56.53;31.98;;;;;;;;;;5029274;28;20452;-67
2022/12/16 02:08:12;;;;;;;53.55;30.10;;;;;;;;;;5031214;28;20374;-68
2022/12/16 02:10:41;;;;;;;49.75;26.20;;;;;;;;;;5030159;28;20032;-68
2022/12/16 02:13:23;;;;;;;46.90;25.92;;;;;;;;;;5029231;28;20056;-70
2022/12/16 02:15:57;;;;;;;51.30;26.98;;;;;;;;;;5031120;28;20093;-67
2022/12/16 02:18:29;;;;;;;52.80;27.25;;;;;;;;;;5031023;28;20470;-66
2022/12/16 02:20:55;;;;;;;48.58;26.55;;;;;;;;;;5029227;28;20018;-67
2022/12/16 02:23:50;;;;;;;48.83;26.13;;;;;;;;;;5030666;28;20044;-67
2022/12/16 02:26:22;;;;;;;43.78;26.50;;;;;;;;;;5013302;28;20413;-69
2022/12/16 02:29:03;;;;;;;44.20;25.60;;;;;;;;;;5029660;28;20068;-66
2022/12/16 02:31:33;;;;;;;49.17;28.50;;;;;;;;;;5029872;28;20559;-68
2022/12/16 02:34:08;;;;;;;49.58;29.08;;;;;;;;;;5030306;28;20216;-67
2022/12/16 02:36:34;;;;;;;52.30;28.02;;;;;;;;;;5030693;28;20474;-66
2022/12/16 02:39:05;;;;;;;50.38;26.08;;;;;;;;;;5030526;28;20104;-67
2022/12/16 02:41:34;;;;;;;45.15;26.40;;;;;;;;;;5030722;28;20032;-67
2022/12/16 02:44:04;;;;;;;52.08;28.67;;;;;;;;;;5028884;28;20044;-67
2022/12/16 02:46:34;;;;;;;51.50;27.40;;;;;;;;;;5030899;28;20468;-67
2022/12/16 02:49:19;;;;;;;51.65;25.27;;;;;;;;;;5029242;28;20096;-67
2022/12/16 02:51:46;;;;;;;47.05;27.52;;;;;;;;;;5030591;28;20037;-69
2022/12/16 02:54:13;;;;;;;51.30;27.65;;;;;;;;;;5030020;28;20036;-66
2022/12/16 02:56:39;;;;;;;49.80;27.80;;;;;;;;;;5030343;28;20041;-66
2022/12/16 02:59:08;;;;;;;51.10;27.52;;;;;;;;;;5030211;28;20030;-64
2022/12/16 03:01:38;;;;;;;56.17;28.02;;;;;;;;;;5030522;28;20389;-67
2022/12/16 03:04:09;;;;;;;47.63;29.55;;;;;;;;;;5029842;28;20045;-65
2022/12/16 03:06:36;;;;;;;47.28;29.70;;;;;;;;;;5030802;28;20075;-66
2022/12/16 03:09:04;;;;;;;53.55;29.42;;;;;;;;;;5029212;28;20075;-68
2022/12/16 03:11:31;;;;;;;49.58;30.02;;;;;;;;;;5029268;28;20083;-68
2022/12/16 03:13:59;;;;;;;50.45;29.63;;;;;;;;;;5029845;28;20037;-67
2022/12/16 03:16:30;;;;;;;52.28;29.77;;;;;;;;;;5030351;28;20107;-68
2022/12/16 03:18:59;;;;;;;48.92;28.25;;;;;;;;;;5029081;28;20029;-67
2022/12/16 03:21:27;;;;;;;51.70;29.38;;;;;;;;;;5030313;28;20021;-69
2022/12/16 03:23:54;;;;;;;54.50;28.25;;;;;;;;;;5029996;28;20474;-69
2022/12/16 03:26:33;;;;;;;54.55;30.17;;;;;;;;;;5029410;28;20091;-67
2022/12/16 03:28:59;;;;;;;57.95;29.60;;;;;;;;;;5029898;28;20049;-66
2022/12/16 03:31:30;;;;;;;47.75;28.48;;;;;;;;;;5032463;28;20033;-65
2022/12/16 03:34:02;;;;;;;50.47;28.85;;;;;;;;;;5034075;28;20034;-66
2022/12/16 03:36:29;;;;;;;52.53;30.60;;;;;;;;;;5034843;28;20085;-66
2022/12/16 03:38:56;;;;;;;51.45;27.50;;;;;;;;;;5033748;28;20396;-66
2022/12/16 03:41:23;;;;;;;52.08;29.58;;;;;;;;;;5034743;28;20028;-66
2022/12/16 03:43:49;;;;;;;55.60;31.17;;;;;;;;;;5033479;28;20088;-66
2022/12/16 03:46:16;;;;;;;64.15;30.45;;;;;;;;;;5033963;28;20029;-66
2022/12/16 03:48:45;;;;;;;62.28;31.92;;;;;;;;;;5034155;28;20021;-64
2022/12/16 03:51:11;;;;;;;53.08;28.95;;;;;;;;;;5034485;28;20032;-66
2022/12/16 03:53:38;;;;;;;56.25;31.33;;;;;;;;;;5033428;28;20390;-66
2022/12/16 03:56:04;;;;;;;59.20;31.55;;;;;;;;;;5032322;28;20112;-66
2022/12/16 03:58:30;;;;;;;49.67;31.63;;;;;;;;;;5034000;28;20022;-66
2022/12/16 04:00:55;;;;;;;58.47;31.75;;;;;;;;;;5034112;28;20029;-66
2022/12/16 04:03:21;;;;;;;58.65;30.25;;;;;;;;;;5033189;28;20107;-67
2022/12/16 04:05:48;;;;;;;56.80;30.92;;;;;;;;;;5033769;28;20021;-67
2022/12/16 04:08:14;;;;;;;52.05;29.63;;;;;;;;;;5033613;28;20033;-66
2022/12/16 04:24:34;;;;;;;59.03;31.40;;;;;;;;;;5032953;28;20437;-66
2022/12/16 04:34:24;;;;;;;56.83;29.35;;;;;;;;;;5033394;28;20464;-68
